Time;durP1;ratioP1;P1;durP2;ratioP2;P2;SDS_P1;SDS_P2;PMS_P1;PMS_P2;Temp;Humidity;BMP_temperature;BMP_pressure;BME280_temperature;BME280_humidity;BME280_pressure;Samples;Min_cycle;Max_cycle;Signal;HPM_P1;HPM_P2
2022/02/02 00:02:19;;;;;;;21.42;11.65;;;;;;;-2.46;72.88;96646.01;1821372;78;21077;-61
2022/02/02 00:04:43;;;;;;;22.52;12.45;;;;;;;-2.45;72.99;96644.98;1820084;78;21363;-61
2022/02/02 00:07:35;;;;;;;27.42;13.55;;;;;;;-2.39;72.99;96632.21;1821821;78;20927;-65
2022/02/02 00:15:05;;;;;;;26.42;13.58;;;;;;;-2.28;72.98;96623.44;1822665;78;21334;-61
2022/02/02 00:22:41;;;;;;;24.35;13.78;;;;;;;-2.20;72.73;96622.53;1822738;78;21423;-60
2022/02/02 00:25:49;;;;;;;20.17;12.40;;;;;;;-2.21;72.74;96621.44;1822528;78;20927;-64
2022/02/02 00:27:45;;;;;;;26.25;12.80;;;;;;;-2.22;72.77;96620.67;1811769;78;21082;-64
2022/02/02 00:30:15;;;;;;;27.75;13.15;;;;;;;-2.20;72.78;96617.80;1822672;78;20899;-64
2022/02/02 00:35:08;;;;;;;23.80;12.82;;;;;;;-2.21;72.83;96607.02;1822403;78;20896;-61
2022/02/02 00:37:34;;;;;;;24.50;12.43;;;;;;;-2.19;72.85;96607.05;1822420;78;20947;-60
2022/02/02 00:40:01;;;;;;;21.37;11.78;;;;;;;-2.14;72.87;96605.80;1822671;78;21759;-60
2022/02/02 00:42:29;;;;;;;25.00;12.90;;;;;;;-2.09;72.87;96601.14;1822437;78;20880;-59
2022/02/02 00:44:57;;;;;;;26.35;12.98;;;;;;;-2.09;72.89;96595.89;1822698;78;20872;-64
2022/02/02 00:47:25;;;;;;;23.38;12.53;;;;;;;-2.11;72.88;96588.27;1822500;78;20848;-61
2022/02/02 00:49:52;;;;;;;28.42;14.50;;;;;;;-2.13;72.88;96588.23;1822829;78;20982;-62
2022/02/02 00:52:20;;;;;;;43.85;22.00;;;;;;;-2.17;72.88;96581.91;1822348;78;21103;-60
2022/02/02 00:54:47;;;;;;;39.25;19.35;;;;;;;-2.19;72.92;96572.17;1822295;78;20892;-61
2022/02/02 00:57:14;;;;;;;22.52;14.07;;;;;;;-2.21;72.96;96570.28;1822716;78;21300;-64
2022/02/02 00:59:41;;;;;;;28.55;16.93;;;;;;;-2.24;72.96;96562.92;1822437;78;20904;-60
2022/02/02 01:02:08;;;;;;;20.72;13.05;;;;;;;-2.29;72.96;96552.38;1822613;78;20911;-64
2022/02/02 01:04:35;;;;;;;20.02;11.20;;;;;;;-2.33;73.06;96552.59;1822568;78;21104;-63
2022/02/02 01:09:42;;;;;;;26.20;12.90;;;;;;;-2.44;73.28;96535.12;1822409;78;20860;-60
2022/02/02 01:27:57;;;;;;;22.20;12.60;;;;;;;-2.53;74.24;96505.92;1822763;78;20958;-60
2022/02/02 01:30:24;;;;;;;22.87;12.53;;;;;;;-2.51;74.39;96503.05;1822475;78;21098;-61
2022/02/02 01:32:52;;;;;;;27.25;15.93;;;;;;;-2.52;74.47;96500.16;1822302;78;20828;-61
2022/02/02 01:35:19;;;;;;;29.90;15.03;;;;;;;-2.53;74.57;96500.67;1822593;78;21370;-61
2022/02/02 01:37:47;;;;;;;28.73;15.98;;;;;;;-2.52;74.58;96494.92;1822560;78;21438;-64
2022/02/02 01:40:28;;;;;;;23.80;13.60;;;;;;;-2.51;74.59;96492.55;1822467;78;20995;-61
2022/02/02 01:42:56;;;;;;;28.50;12.43;;;;;;;-2.51;74.57;96492.55;1820679;78;21122;-65
2022/02/02 01:45:21;;;;;;;22.93;12.00;;;;;;;-2.52;74.59;96483.12;1820559;78;20915;-61
2022/02/02 01:47:58;;;;;;;20.55;13.10;;;;;;;-2.55;74.55;96475.73;1822131;78;21731;-59
2022/02/02 01:50:24;;;;;;;19.12;11.38;;;;;;;-2.56;74.59;96472.83;1820010;78;20872;-70
2022/02/02 01:53:08;;;;;;;23.30;12.13;;;;;;;-2.57;74.58;96467.33;1818975;77;20833;-63
2022/02/02 01:55:29;;;;;;;30.32;16.85;;;;;;;-2.58;74.60;96461.80;1814964;79;21100;-61
2022/02/02 01:58:03;;;;;;;34.75;17.10;;;;;;;-2.59;74.66;96453.12;1816710;79;20887;-60
2022/02/02 02:00:19;;;;;;;25.23;13.08;;;;;;;-2.61;74.59;96455.72;1815281;79;20896;-63
2022/02/02 02:02:46;;;;;;;20.50;10.75;;;;;;;-2.62;74.57;96448.40;1817908;79;20979;-60
2022/02/02 02:05:13;;;;;;;23.30;11.78;;;;;;;-2.62;74.47;96446.29;1817928;79;20829;-59
2022/02/02 02:07:40;;;;;;;25.10;10.78;;;;;;;-2.66;74.46;96439.41;1818021;79;21099;-64
2022/02/02 02:10:08;;;;;;;20.60;11.57;;;;;;;-2.66;74.49;96436.80;1818054;79;20889;-64
2022/02/02 02:12:44;;;;;;;27.50;15.90;;;;;;;-2.66;74.38;96434.72;1818377;79;20868;-63
2022/02/02 02:15:07;;;;;;;29.10;16.17;;;;;;;-2.66;74.29;96432.86;1816314;79;20879;-62
2022/02/02 02:17:34;;;;;;;20.72;12.68;;;;;;;-2.65;74.23;96427.11;1817968;79;20907;-61
2022/02/02 02:20:01;;;;;;;18.32;10.43;;;;;;;-2.64;74.17;96430.02;1817990;79;21742;-60
2022/02/02 02:22:29;;;;;;;23.22;10.63;;;;;;;-2.64;74.08;96427.39;1817910;79;20991;-63
2022/02/02 02:24:56;;;;;;;18.15;10.43;;;;;;;-2.63;74.04;96427.66;1818218;79;21489;-61
2022/02/02 02:27:24;;;;;;;22.17;10.65;;;;;;;-2.60;73.90;96425.86;1817983;79;20915;-62
2022/02/02 02:30:09;;;;;;;39.40;20.08;;;;;;;-2.58;73.86;96424.58;1817968;79;20903;-64
2022/02/02 02:57:13;;;;;;;20.52;10.63;;;;;;;-2.67;73.83;96416.88;1822779;78;21632;-63
2022/02/02 02:59:46;;;;;;;35.58;21.23;;;;;;;-2.70;73.92;96406.08;1822024;78;21124;-60
2022/02/02 03:59:41;;;;;;;25.45;14.93;;;;;;;-2.50;73.51;96336.84;1822470;78;20958;-63
2022/02/02 04:02:08;;;;;;;28.00;16.70;;;;;;;-2.46;73.42;96338.72;1803964;78;20880;-62
2022/02/02 04:04:22;;;;;;;24.57;14.95;;;;;;;-2.44;73.28;96342.40;1811822;78;20895;-60
2022/02/02 04:06:23;;;;;;;18.60;10.72;;;;;;;-2.44;73.32;96333.22;1818505;78;21073;-62
2022/02/02 04:08:48;;;;;;;27.13;13.30;;;;;;;-2.43;73.20;96337.44;1822284;78;21462;-62
2022/02/02 04:11:29;;;;;;;40.98;23.83;;;;;;;-2.44;73.30;96333.22;1822388;78;20993;-60
2022/02/02 04:51:58;;;;;;;26.40;14.78;;;;;;;-2.16;73.23;96304.09;1764978;81;21541;-61
2022/02/02 04:57:18;;;;;;;31.07;16.65;;;;;;;-2.15;73.18;96304.38;1815207;79;20899;-64
2022/02/02 05:07:26;;;;;;;21.17;13.48;;;;;;;-2.13;73.11;96295.73;1815486;79;21471;-63
2022/02/02 05:09:59;;;;;;;22.52;12.90;;;;;;;-2.13;73.17;96287.86;1813919;79;20935;-61
2022/02/02 05:18:04;;;;;;;23.00;12.98;;;;;;;-2.12;73.41;96284.22;1726523;82;20975;-65
2022/02/02 05:50:05;;;;;;;26.75;14.07;;;;;;;-2.02;73.04;96271.66;1815591;79;21353;-59
2022/02/02 05:52:15;;;;;;;27.00;13.63;;;;;;;-1.98;73.09;96269.62;1811205;78;21001;-63
2022/02/02 05:54:41;;;;;;;24.35;13.20;;;;;;;-1.93;73.04;96274.87;1817761;79;20860;-60
2022/02/02 05:57:13;;;;;;;30.80;17.90;;;;;;;-1.89;72.99;96280.42;1817834;79;20890;-61
2022/02/02 05:59:42;;;;;;;34.80;18.55;;;;;;;-1.86;73.05;96278.62;1817667;79;20872;-61
2022/02/02 06:02:12;;;;;;;32.70;17.65;;;;;;;-1.81;73.02;96279.42;1817743;79;20911;-63
2022/02/02 06:04:45;;;;;;;24.40;15.48;;;;;;;-1.79;73.06;96281.27;1817818;79;21094;-62
2022/02/02 06:07:15;;;;;;;27.77;14.80;;;;;;;-1.76;72.99;96282.08;1817963;79;21309;-61
2022/02/02 06:09:47;;;;;;;19.25;13.95;;;;;;;-1.74;72.89;96278.67;1818004;79;21077;-60
2022/02/02 06:12:11;;;;;;;29.07;17.05;;;;;;;-1.73;72.81;96286.84;1817137;79;20895;-63
2022/02/02 06:14:39;;;;;;;30.02;17.98;;;;;;;-1.74;72.98;96289.18;1786333;79;20920;-60
2022/02/02 06:17:08;;;;;;;24.63;14.87;;;;;;;-1.70;72.94;96291.59;1817710;79;21098;-63
2022/02/02 06:19:35;;;;;;;23.92;14.25;;;;;;;-1.67;72.83;96289.75;1817696;79;20935;-61
2022/02/02 06:22:17;;;;;;;21.27;13.48;;;;;;;-1.63;72.75;96288.22;1817816;79;20828;-63
2022/02/02 06:24:57;;;;;;;20.95;13.18;;;;;;;-1.59;72.61;96289.80;1817830;79;20908;-62
2022/02/02 06:27:26;;;;;;;22.40;12.35;;;;;;;-1.56;72.35;96286.16;1817836;79;20858;-62
2022/02/02 06:30:04;;;;;;;22.82;13.40;;;;;;;-1.55;72.28;96282.47;1818108;79;21082;-64
2022/02/02 06:32:52;;;;;;;21.80;12.50;;;;;;;-1.54;72.09;96280.13;1817633;79;20860;-64
2022/02/02 06:35:22;;;;;;;29.82;17.67;;;;;;;-1.53;71.98;96275.13;1818014;79;20899;-64
2022/02/02 06:37:49;;;;;;;25.82;15.70;;;;;;;-1.47;71.86;96273.32;1817746;79;20912;-63
2022/02/02 06:40:17;;;;;;;28.32;15.40;;;;;;;-1.42;71.55;96273.35;1818198;78;21449;-65
2022/02/02 06:42:44;;;;;;;25.95;14.45;;;;;;;-1.40;71.33;96266.80;1817717;78;21031;-66
2022/02/02 06:45:12;;;;;;;19.02;11.83;;;;;;;-1.37;71.32;96275.45;1817751;78;20860;-62
2022/02/02 06:47:40;;;;;;;20.82;12.68;;;;;;;-1.34;71.02;96266.83;1817817;79;21432;-64
2022/02/02 06:50:16;;;;;;;19.85;11.38;;;;;;;-1.30;70.54;96276.56;1817880;79;21482;-67
2022/02/02 06:52:55;;;;;;;27.25;14.68;;;;;;;-1.27;69.96;96270.00;1817396;78;20896;-66
2022/02/02 06:55:31;;;;;;;30.80;15.35;;;;;;;-1.25;69.92;96267.91;1810806;77;21471;-65
2022/02/02 06:58:23;;;;;;;31.20;17.60;;;;;;;-1.20;69.90;96266.62;1801525;79;20966;-63
2022/02/02 07:01:10;;;;;;;24.07;14.03;;;;;;;-1.17;69.49;96272.65;1767070;80;21400;-66
2022/02/02 07:08:55;;;;;;;43.13;21.87;;;;;;;-1.09;69.16;96263.77;1785901;80;21739;-66
2022/02/02 07:11:18;;;;;;;152.90;67.22;;;;;;;-1.08;69.21;96269.79;1782014;80;21503;-67
2022/02/02 07:23:57;;;;;;;99.83;46.83;;;;;;;-1.04;70.88;96269.05;1794806;77;21011;-62
2022/02/02 07:26:30;;;;;;;52.98;29.48;;;;;;;-1.06;71.30;96274.29;1780967;80;21061;-65
2022/02/02 07:31:45;;;;;;;20.97;12.93;;;;;;;-1.04;71.84;96275.61;1785131;80;21105;-65
2022/02/02 07:34:46;;;;;;;23.05;14.13;;;;;;;-1.03;72.15;96271.12;1809322;79;21180;-65
2022/02/02 07:37:11;;;;;;;19.70;12.85;;;;;;;-1.04;72.41;96272.19;1809729;79;21509;-65
2022/02/02 07:39:38;;;;;;;19.67;10.80;;;;;;;-1.01;72.69;96269.81;1811557;79;21018;-65
2022/02/02 07:42:06;;;;;;;20.43;12.03;;;;;;;-0.97;72.96;96268.80;1815920;79;21502;-65
2022/02/02 07:44:39;;;;;;;20.08;11.12;;;;;;;-0.95;73.08;96275.89;1816867;79;21074;-61
2022/02/02 07:47:10;;;;;;;36.35;18.62;;;;;;;-0.95;73.18;96266.17;1810201;78;21086;-63
2022/02/02 07:49:40;;;;;;;36.70;21.00;;;;;;;-0.92;73.26;96267.50;1784869;80;20983;-64
2022/02/02 07:52:09;;;;;;;26.65;15.40;;;;;;;-0.90;73.46;96264.08;1784491;80;21006;-63
2022/02/02 07:54:39;;;;;;;28.60;16.30;;;;;;;-0.91;73.61;96260.66;1785136;79;20919;-67
2022/02/02 07:57:13;;;;;;;29.10;16.17;;;;;;;-0.87;74.03;96271.42;1785326;80;20867;-60
2022/02/02 07:59:55;;;;;;;22.37;13.43;;;;;;;-0.88;74.12;96273.81;1793068;79;21098;-62
2022/02/02 08:02:21;;;;;;;18.42;11.40;;;;;;;-0.84;74.29;96275.66;1815825;79;21039;-64
2022/02/02 08:04:46;;;;;;;25.82;15.72;;;;;;;-0.81;74.41;96273.03;1816763;78;21034;-65
2022/02/02 08:07:20;;;;;;;21.60;12.85;;;;;;;-0.79;74.47;96272.25;1817348;79;21474;-67
2022/02/02 08:09:48;;;;;;;23.32;11.40;;;;;;;-0.78;74.65;96268.59;1816091;79;20963;-64
2022/02/02 08:12:20;;;;;;;18.17;9.98;;;;;;;-0.76;74.83;96272.53;1816257;79;21118;-64
2022/02/02 08:14:53;;;;;;;17.57;10.95;;;;;;;-0.76;75.16;96265.97;1787880;79;20927;-62
2022/02/02 08:17:13;;;;;;;20.55;10.00;;;;;;;-0.73;75.52;96272.55;1816342;79;20907;-64
2022/02/02 08:19:41;;;;;;;17.48;9.18;;;;;;;-0.73;76.15;96273.86;1817869;79;21410;-64
2022/02/02 08:22:08;;;;;;;21.05;11.55;;;;;;;-0.73;76.92;96281.74;1817913;79;20962;-73
2022/02/02 08:24:35;;;;;;;14.47;8.78;;;;;;;-0.73;77.26;96265.42;1807333;79;21900;-66
2022/02/02 08:27:03;;;;;;;20.32;10.25;;;;;;;-0.72;77.90;96263.07;1818001;79;20812;-68
2022/02/02 08:29:31;;;;;;;17.67;9.98;;;;;;;-0.75;78.29;96264.09;1813780;79;21447;-63
2022/02/02 08:31:58;;;;;;;14.25;8.25;;;;;;;-0.77;78.78;96256.48;1769222;80;20975;-66
2022/02/02 08:34:25;;;;;;;20.08;10.60;;;;;;;-0.77;78.98;96260.95;1785724;80;20906;-66
2022/02/02 08:36:54;;;;;;;17.37;10.05;;;;;;;-0.75;79.26;96254.90;1786160;80;21104;-58
2022/02/02 08:39:32;;;;;;;16.15;9.83;;;;;;;-0.72;79.59;96260.44;1796273;79;20887;-64
2022/02/02 08:41:54;;;;;;;16.48;10.55;;;;;;;-0.71;79.78;96261.23;1784154;80;21050;-66
2022/02/02 08:44:23;;;;;;;15.35;9.35;;;;;;;-0.70;79.93;96264.11;1785336;80;20923;-63
2022/02/02 08:46:56;;;;;;;16.85;9.15;;;;;;;-0.73;80.17;96263.34;1785553;80;20959;-65
2022/02/02 08:49:17;;;;;;;14.98;9.20;;;;;;;-0.75;81.21;96265.41;1784616;80;21484;-65
2022/02/02 08:51:47;;;;;;;12.28;8.55;;;;;;;-0.80;81.82;96264.88;1786020;80;20872;-68
2022/02/02 08:59:22;;;;;;;12.78;9.05;;;;;;;-0.79;82.24;96266.99;1760131;81;20903;-61
2022/02/02 09:01:41;;;;;;;13.60;8.53;;;;;;;-0.75;82.30;96266.73;1777549;80;22050;-62
2022/02/02 09:06:53;;;;;;;17.97;11.03;;;;;;;-0.67;82.39;96260.97;1818177;79;20904;-63
2022/02/02 09:09:24;;;;;;;14.13;8.93;;;;;;;-0.63;82.40;96269.91;1818016;79;21341;-61
2022/02/02 09:20:16;;;;;;;14.23;8.13;;;;;;;-0.55;83.41;96257.58;1815097;77;21544;-61
2022/02/02 09:25:35;;;;;;;19.40;8.90;;;;;;;-0.63;84.43;96254.13;1806109;77;20911;-64
2022/02/02 09:35:57;;;;;;;;;;;;;;;-0.69;86.66;96255.19;1818880;79;47290;-69
2022/02/02 09:38:25;;;;;;;13.93;6.92;;;;;;;-0.68;87.02;96264.64;1788562;79;20068;-69
2022/02/02 09:43:26;;;;;;;14.95;8.85;;;;;;;-0.63;87.70;96260.70;1817382;79;20817;-59
2022/02/02 09:45:59;;;;;;;12.35;7.40;;;;;;;-0.63;88.02;96255.45;1769421;79;21402;-60
2022/02/02 09:48:32;;;;;;;12.30;7.85;;;;;;;-0.61;87.87;96252.03;1734468;82;21452;-60
2022/02/02 09:50:56;;;;;;;15.45;8.88;;;;;;;-0.57;88.01;96255.73;1777172;80;20962;-66
2022/02/02 09:53:33;;;;;;;12.25;7.72;;;;;;;-0.49;88.00;96241.25;1767913;80;21117;-68
2022/02/02 09:56:07;;;;;;;12.75;8.55;;;;;;;-0.43;87.83;96244.96;1831980;76;20947;-68
2022/02/02 09:58:55;;;;;;;13.10;8.33;;;;;;;-0.36;87.68;96234.17;1836405;77;20865;-64
2022/02/02 10:01:40;;;;;;;13.15;7.62;;;;;;;-0.28;87.56;96223.91;1836971;77;21018;-65
2022/02/02 10:04:04;;;;;;;13.78;7.67;;;;;;;-0.17;87.34;96225.49;1793901;79;21062;-66
2022/02/02 10:09:18;;;;;;;14.90;8.08;;;;;;;0.08;86.61;96224.66;1739175;81;21006;-64
2022/02/02 10:14:29;;;;;;;15.38;8.08;;;;;;;0.23;85.62;96220.69;1800935;79;20895;-61
2022/02/02 10:16:56;;;;;;;10.98;6.67;;;;;;;0.30;85.54;96215.93;1769567;81;20999;-63
2022/02/02 10:19:25;;;;;;;10.30;7.15;;;;;;;0.41;85.00;96216.67;1765588;81;21189;-62
2022/02/02 10:21:52;;;;;;;13.83;6.65;;;;;;;0.53;84.66;96217.95;1769630;81;20923;-70
2022/02/02 10:24:41;;;;;;;11.12;6.55;;;;;;;0.63;84.08;96215.30;1798587;78;21502;-64
2022/02/02 10:27:27;;;;;;;10.72;6.78;;;;;;;0.69;83.50;96215.52;1792873;79;20959;-64
2022/02/02 10:29:58;;;;;;;;;;;;;;;0.72;83.13;96222.09;1771351;79;21086;-66
2022/02/02 10:32:43;;;;;;;21.42;12.05;;;;;;;0.75;83.05;96220.25;1797623;79;21627;-61
2022/02/02 10:35:33;;;;;;;18.82;9.20;;;;;;;0.76;82.89;96209.95;1799814;79;20832;-66
2022/02/02 10:38:05;;;;;;;8.98;6.22;;;;;;;0.79;82.57;96217.84;1801148;79;20880;-65
2022/02/02 10:43:31;;;;;;;8.45;6.17;;;;;;;0.86;82.14;96215.70;1776571;80;21034;-67
2022/02/02 10:45:55;;;;;;;6.87;5.58;;;;;;;0.89;81.82;96212.02;1768509;80;21426;-62
2022/02/02 10:48:36;;;;;;;6.80;5.15;;;;;;;0.93;81.63;96210.40;1748854;80;20911;-66
2022/02/02 10:51:08;;;;;;;7.90;5.37;;;;;;;0.99;81.18;96213.25;1768507;81;20977;-63
2022/02/02 10:53:38;;;;;;;10.28;6.30;;;;;;;1.02;80.98;96203.49;1767214;81;21459;-65
2022/02/02 11:01:47;;;;;;;7.58;5.45;;;;;;;1.26;80.34;96202.30;1830954;78;21018;-61
2022/02/02 11:06:55;;;;;;;7.65;5.10;;;;;;;1.43;79.26;96198.75;1817100;76;21021;-66
2022/02/02 11:09:23;;;;;;;6.17;4.12;;;;;;;1.49;79.18;96203.44;1805067;78;21020;-61
2022/02/02 11:11:52;;;;;;;7.17;5.50;;;;;;;1.55;78.60;96206.31;1798960;79;21119;-63
2022/02/02 11:15:04;;;;;;;5.80;3.72;;;;;;;1.65;78.59;96198.33;1799841;79;20950;-69
2022/02/02 11:18:09;;;;;;;4.58;3.20;;;;;;;1.71;77.97;96206.45;1799731;79;20843;-62
2022/02/02 11:20:38;;;;;;;6.25;4.00;;;;;;;1.79;77.67;96207.95;1773692;79;21002;-69
2022/02/02 11:23:05;;;;;;;4.58;3.02;;;;;;;1.85;77.29;96201.58;1805844;78;20843;-66
2022/02/02 11:25:35;;;;;;;6.35;4.17;;;;;;;1.91;76.82;96207.05;1831273;78;21124;-67
2022/02/02 11:28:06;;;;;;;3.62;2.90;;;;;;;1.99;76.77;96222.83;1830991;78;20934;-67
2022/02/02 11:30:40;;;;;;;4.53;3.17;;;;;;;2.05;76.42;96230.95;1828984;78;21354;-69
2022/02/02 11:33:20;;;;;;;3.50;2.67;;;;;;;2.07;76.58;96216.41;1831257;78;21024;-71
2022/02/02 11:35:50;;;;;;;3.42;2.50;;;;;;;2.14;76.46;96215.30;1832463;78;21006;-67
2022/02/02 11:38:28;;;;;;;2.90;2.00;;;;;;;2.18;76.59;96213.14;1831691;78;21083;-61
2022/02/02 11:41:19;;;;;;;3.35;2.30;;;;;;;2.23;76.60;96227.63;1831424;78;21521;-65
2022/02/02 11:44:19;;;;;;;2.87;1.82;;;;;;;2.23;76.88;96218.38;1800996;78;20886;-66
2022/02/02 11:49:59;;;;;;;2.30;1.87;;;;;;;2.23;77.49;96213.09;1831497;78;21564;-60
2022/02/02 11:52:54;;;;;;;2.33;2.00;;;;;;;2.24;78.14;96208.05;1831527;78;21038;-68
2022/02/02 11:55:42;;;;;;;2.27;2.05;;;;;;;2.23;78.60;96221.55;1823824;78;20908;-62
2022/02/02 11:58:18;;;;;;;3.20;2.47;;;;;;;2.21;79.35;96214.44;1816956;79;20983;-66
2022/02/02 12:04:08;;;;;;;3.10;2.30;;;;;;;2.14;79.90;96222.70;1817828;79;20907;-63
2022/02/02 12:06:41;;;;;;;2.30;1.90;;;;;;;2.12;80.24;96224.81;1815111;77;21115;-61
2022/02/02 12:09:11;;;;;;;2.52;1.92;;;;;;;2.09;80.45;96226.70;1799113;79;20966;-60
2022/02/02 12:49:58;;;;;;;2.95;2.20;;;;;;;1.63;83.79;96278.28;1744007;80;20976;-65
2022/02/02 12:58:05;;;;;;;41.30;21.75;;;;;;;1.56;84.73;96288.36;1785713;80;20962;-66
2022/02/02 13:00:39;;;;;;;15.90;8.73;;;;;;;1.55;85.28;96297.35;1783841;80;21129;-64
2022/02/02 13:03:05;;;;;;;12.30;6.20;;;;;;;1.51;85.79;96288.42;1785355;80;21047;-68
2022/02/02 13:05:35;;;;;;;10.03;5.50;;;;;;;1.47;86.38;96299.23;1804664;79;21443;-63
2022/02/02 13:08:02;;;;;;;17.15;11.03;;;;;;;1.45;86.52;96298.20;1792356;79;21067;-61
2022/02/02 13:10:34;;;;;;;10.08;7.53;;;;;;;1.42;86.71;96298.73;1731207;80;20941;-65
2022/02/02 13:13:17;;;;;;;5.92;3.37;;;;;;;1.40;86.96;96304.82;1804082;79;21087;-64
2022/02/02 13:21:06;;;;;;;4.37;3.33;;;;;;;1.43;87.66;96299.53;1803492;77;21455;-61
2022/02/02 13:26:44;;;;;;;4.47;3.08;;;;;;;1.42;87.93;96307.97;1784689;80;21149;-64
2022/02/02 13:32:12;;;;;;;8.05;5.65;;;;;;;1.48;88.43;96317.98;1807755;77;21502;-65
2022/02/02 13:43:09;;;;;;;3.95;3.25;;;;;;;1.45;88.84;96325.91;1845741;77;20955;-61
2022/02/02 13:56:19;;;;;;;2.72;2.02;;;;;;;1.63;88.66;96327.11;1751867;81;20974;-66
2022/02/02 14:06:59;;;;;;;2.67;1.80;;;;;;;1.73;88.50;96319.13;1785204;80;21195;-66
2022/02/02 14:09:26;;;;;;;1.77;1.30;;;;;;;1.76;88.57;96338.39;1783507;80;21105;-68
2022/02/02 14:25:40;;;;;;;1.60;1.32;;;;;;;1.79;88.46;96328.61;1783827;80;21462;-72
2022/02/02 14:33:23;;;;;;;;;;;;;;;1.54;89.81;96347.22;1789195;80;21756;-67
2022/02/02 14:35:53;;;;;;;3.67;2.30;;;;;;;1.48;90.11;96345.69;1786479;80;20080;-67
2022/02/02 14:38:18;;;;;;;4.20;1.52;;;;;;;1.43;90.62;96360.21;1786496;80;20932;-65
2022/02/02 14:43:14;;;;;;;2.30;1.30;;;;;;;1.33;90.74;96369.75;1786734;80;20888;-73
2022/02/02 14:45:45;;;;;;;1.10;0.93;;;;;;;1.32;90.98;96372.13;1786224;80;21172;-63
2022/02/02 14:48:17;;;;;;;42.73;20.05;;;;;;;1.32;91.38;96373.44;1785633;80;20967;-70
2022/02/02 14:51:00;;;;;;;1.32;1.22;;;;;;;1.33;91.28;96373.71;1785095;80;20924;-68
2022/02/02 14:53:28;;;;;;;1.85;1.15;;;;;;;1.33;91.45;96371.59;1784329;80;20927;-68
2022/02/02 14:56:10;;;;;;;36.58;18.67;;;;;;;1.32;91.41;96372.64;1786923;80;20867;-69
2022/02/02 15:30:28;;;;;;;3.33;1.80;;;;;;;1.32;92.35;96422.24;1793199;80;20999;-62
2022/02/02 15:32:53;;;;;;;2.75;1.30;;;;;;;1.32;92.46;96426.20;1792410;80;20913;-63
2022/02/02 15:35:21;;;;;;;1.20;0.90;;;;;;;1.31;92.48;96432.55;1793288;80;20971;-62
2022/02/02 15:38:03;;;;;;;3.70;2.17;;;;;;;1.30;92.53;96437.55;1793082;80;20963;-64
2022/02/02 15:40:44;;;;;;;2.17;1.60;;;;;;;1.32;92.63;96438.06;1792656;80;20944;-62
2022/02/02 15:58:59;;;;;;;1.80;1.40;;;;;;;1.37;92.15;96469.72;1804319;79;20995;-64
2022/02/02 16:03:57;;;;;;;6.53;3.60;;;;;;;1.36;92.02;96470.00;1775839;79;21115;-66
2022/02/02 16:06:25;;;;;;;2.17;1.65;;;;;;;1.37;92.01;96472.35;1804616;79;20943;-62
2022/02/02 16:09:15;;;;;;;3.30;2.10;;;;;;;1.36;92.00;96477.91;1804381;79;20936;-66
2022/02/02 16:11:30;;;;;;;2.12;1.60;;;;;;;1.36;92.08;96487.14;1800891;79;20967;-64
2022/02/02 16:14:03;;;;;;;3.80;2.10;;;;;;;1.37;92.06;96482.11;1804314;79;20999;-61
2022/02/02 16:19:02;;;;;;;4.35;1.60;;;;;;;1.43;91.97;96481.58;1804380;79;21026;-66
2022/02/02 16:37:36;;;;;;;2.75;2.20;;;;;;;1.50;91.80;96509.80;1804378;79;20888;-61
2022/02/02 16:40:01;;;;;;;3.92;2.58;;;;;;;1.50;91.81;96517.71;1803839;79;21019;-68
2022/02/02 16:45:13;;;;;;;3.17;2.30;;;;;;;1.49;91.86;96516.11;1804611;79;20904;-62
2022/02/02 16:47:40;;;;;;;2.98;2.40;;;;;;;1.47;91.92;96522.19;1804739;79;20951;-63
2022/02/02 16:50:10;;;;;;;3.33;2.30;;;;;;;1.47;91.87;96515.59;1804341;79;21022;-65
2022/02/02 16:52:36;;;;;;;3.05;2.60;;;;;;;1.47;91.94;96515.59;1804533;79;21048;-65
2022/02/02 16:55:06;;;;;;;3.00;2.25;;;;;;;1.48;92.01;96526.42;1804564;79;21647;-67
2022/02/02 17:30:15;;;;;;;3.33;2.37;;;;;;;1.63;91.54;96548.80;1786495;80;20892;-64
2022/02/02 17:32:51;;;;;;;3.70;2.50;;;;;;;1.66;91.40;96561.47;1785640;80;20983;-64
2022/02/02 17:35:32;;;;;;;3.83;2.55;;;;;;;1.65;91.41;96554.08;1785632;80;21864;-61
2022/02/02 17:38:07;;;;;;;4.30;2.70;;;;;;;1.67;91.33;96557.79;1785699;80;20998;-66
2022/02/02 18:20:15;;;;;;;4.00;2.67;;;;;;;1.48;91.76;96591.08;1752768;79;20896;-65
2022/02/02 18:22:51;;;;;;;4.60;3.25;;;;;;;1.51;91.81;96590.55;1798163;79;20895;-65
2022/02/02 18:27:52;;;;;;;4.55;2.98;;;;;;;1.49;91.90;96595.27;1798723;79;21399;-61
2022/02/02 18:33:06;;;;;;;5.12;2.83;;;;;;;1.45;92.09;96600.83;1798472;79;20844;-61
2022/02/02 18:35:18;;;;;;;5.08;3.47;;;;;;;1.45;92.15;96610.06;1793026;79;20942;-67
2022/02/02 18:38:49;;;;;;;5.17;3.52;;;;;;;1.44;92.33;96613.23;1798103;79;20914;-65
2022/02/02 18:58:03;;;;;;;5.35;3.75;;;;;;;1.37;92.42;96616.66;1814242;78;21318;-61
2022/02/02 19:00:36;;;;;;;4.97;3.85;;;;;;;1.38;92.33;96626.17;1819664;78;20966;-63
2022/02/02 19:39:02;;;;;;;7.30;4.35;;;;;;;1.25;91.73;96628.80;1822690;78;20958;-67
2022/02/02 20:02:51;;;;;;;7.43;4.90;;;;;;;1.09;91.82;96662.81;1818000;79;20997;-67
2022/02/02 20:05:17;;;;;;;5.50;4.33;;;;;;;1.04;91.89;96672.03;1813863;79;20868;-62
2022/02/02 20:12:39;;;;;;;6.95;5.20;;;;;;;1.03;92.03;96675.73;1817927;79;21061;-62
2022/02/02 20:15:06;;;;;;;7.70;5.95;;;;;;;1.03;92.00;96678.89;1817514;79;20872;-64
2022/02/02 20:17:35;;;;;;;8.55;5.58;;;;;;;1.00;92.03;96667.02;1818195;79;20864;-62
2022/02/02 20:20:13;;;;;;;7.17;5.30;;;;;;;1.01;92.08;96670.45;1817760;79;20919;-62
2022/02/02 20:22:31;;;;;;;7.40;5.83;;;;;;;1.01;92.19;96669.94;1815586;79;20911;-67
2022/02/02 20:25:01;;;;;;;8.10;5.62;;;;;;;1.01;92.29;96676.53;1817860;79;20931;-67
2022/02/02 20:27:31;;;;;;;7.03;5.85;;;;;;;1.00;92.05;96673.61;1818034;79;20970;-65
2022/02/02 20:29:58;;;;;;;8.80;6.12;;;;;;;1.00;92.07;96680.73;1817792;79;20990;-62
2022/02/02 20:32:24;;;;;;;7.42;6.03;;;;;;;0.99;92.09;96690.47;1817876;79;20872;-66
2022/02/02 20:34:51;;;;;;;10.30;6.65;;;;;;;0.98;92.04;96688.11;1817918;79;20975;-64
2022/02/02 20:37:19;;;;;;;8.80;5.78;;;;;;;0.97;92.03;96699.17;1817875;78;21557;-66
2022/02/02 20:40:05;;;;;;;8.40;6.62;;;;;;;0.97;92.02;96699.70;1817915;79;20975;-66
2022/02/02 20:43:08;;;;;;;8.80;6.58;;;;;;;0.98;92.01;96711.31;1817277;79;20950;-64
2022/02/02 21:02:05;;;;;;;7.87;6.95;;;;;;;0.86;92.39;96742.39;1822654;78;20884;-66
2022/02/02 21:04:15;;;;;;;11.48;7.90;;;;;;;0.82;92.82;96758.46;1818227;78;21118;-62
2022/02/02 21:06:24;;;;;;;9.15;7.40;;;;;;;0.80;93.05;96761.09;1818529;78;20942;-65
2022/02/02 21:09:05;;;;;;;9.13;7.33;;;;;;;0.76;93.43;96771.85;1821768;78;20915;-65
2022/02/02 21:11:31;;;;;;;11.33;8.15;;;;;;;0.71;93.68;96772.62;1818952;78;20900;-65
2022/02/02 21:13:51;;;;;;;10.32;7.95;;;;;;;0.67;93.88;96788.17;1819584;78;21446;-63
2022/02/02 21:16:15;;;;;;;8.70;7.17;;;;;;;0.63;93.90;96781.04;1821377;78;21847;-64
2022/02/02 21:18:43;;;;;;;9.68;8.18;;;;;;;0.60;94.06;96786.81;1822380;78;20895;-68
2022/02/02 21:21:21;;;;;;;10.10;7.95;;;;;;;0.54;94.27;96786.53;1822378;78;21339;-64
2022/02/02 21:26:22;;;;;;;10.43;8.18;;;;;;;0.48;94.58;96795.44;1783464;78;21367;-67
2022/02/02 21:28:41;;;;;;;9.50;7.75;;;;;;;0.43;94.59;96800.67;1820795;78;21105;-65
2022/02/02 21:31:08;;;;;;;10.32;8.25;;;;;;;0.42;94.87;96800.42;1822358;78;20900;-63
2022/02/02 21:33:37;;;;;;;9.83;7.67;;;;;;;0.39;94.90;96808.30;1822751;78;20899;-64
2022/02/02 21:36:08;;;;;;;10.00;8.03;;;;;;;0.37;95.01;96811.72;1822239;78;20880;-64
2022/02/02 21:38:42;;;;;;;10.43;7.62;;;;;;;0.32;94.99;96813.00;1822747;78;20872;-68
2022/02/02 21:41:02;;;;;;;9.98;8.10;;;;;;;0.30;95.47;96827.46;1821045;78;21392;-69
2022/02/02 21:43:30;;;;;;;13.32;9.15;;;;;;;0.30;95.51;96831.41;1822355;78;20903;-62
2022/02/02 21:45:57;;;;;;;11.15;8.45;;;;;;;0.30;95.45;96826.15;1822462;78;20994;-67
2022/02/02 21:48:28;;;;;;;10.58;8.23;;;;;;;0.28;95.78;96839.58;1822626;78;20931;-63
2022/02/02 21:51:02;;;;;;;9.90;8.58;;;;;;;0.30;95.78;96838.00;1822335;78;20860;-69
2022/02/02 21:53:26;;;;;;;10.58;8.80;;;;;;;0.30;95.84;96832.73;1821950;78;21367;-63
2022/02/02 21:55:52;;;;;;;9.90;8.48;;;;;;;0.28;96.23;96842.73;1822391;78;20848;-63
2022/02/02 21:58:19;;;;;;;10.43;8.20;;;;;;;0.29;96.33;96853.52;1820191;78;20967;-69
2022/02/02 22:00:45;;;;;;;11.53;9.08;;;;;;;0.28;96.60;96859.84;1817926;79;21372;-68
2022/02/02 22:03:12;;;;;;;12.75;9.75;;;;;;;0.27;96.84;96862.20;1817828;79;20927;-67
2022/02/02 22:05:40;;;;;;;12.25;9.85;;;;;;;0.26;96.93;96869.84;1817841;79;21090;-66